Hlavní strana
METAR-TAF:

METAR-TAF

Letiště :

Rønne, Dánsko

zeměpisná šířka: 55-04N, zeměpisná délka: 014-45E, výška: 16 m

Aktuální stav počasí

Zpráva byla vytvořena před 11 minutami, v 03:50 UTC
Západní vítr 10 kt
Teplota 5°C
Vlhkost vzduchu 93%
Tlak 1001 hPa
Viditelnost 10 km a více

METAR: EKRN 160350Z AUTO 28010KT 9999 SCT023/// BKN053/// OVC065/// 05/04 Q1001

Čas: 05:01 (04:01 UTC)

Předpověď počasí

Zpráva byla vytvořena před 10 hodinami a 23 minutami, v 17:38 UTC
Předpověď platná od 15 v 18 UTC do 15 v 23 UTC
Západní vítr 15 kt
Viditelnost 10 km a více
Oblačno až skoro zataženo ve výšce 800 ft
Dočasný
od 15 v 18 UTC do 15 v 23 UTC
Západoseverozápadní vítr 20 kt s nárazy do 30 kt
Oblačno až skoro zataženo ve výšce 1500 ft

TAF: EKRN 151738Z 1518/1523 28015KT 9999 BKN008 TEMPO 1518/1523 30020G30KT BKN015

Stav a předpovědi počasí z více než 4 000 letišť (zprávy METAR a TAF).

Červené a žluté tečky na mapě představují dostupné meteorologické stanice.

Když kurzor umístíte na tečku, zobrazí se název stanice.

Pak kliknutím zobrazíte stav a předpověď počasí.

Chcete-li změnit mapu, kliknutím na zelené tlačítko se znaménkem +mapu přiblížíte, kliknutím na zelené tlačítko se znaménkem – mapu oddálíte a kliknutím na zelené šipky přejdete na sousední mapy.


METAR-TAF: